Terminal Aerodrome Forecast
Issued by NWS

Home | Current Version | Previous Version | Text Only | Print | Product List | Glossary On
Versions: 1 2 3 4 5 6 7 8 9 10 11 12 13 14 15 16 17 18 19 20 21 22 23 24 25
607
FTUS41 KPBZ 271139
TAFLBE
TAF
KLBE 271139Z 2712/2812 16003KT 5SM -SHRA OVC025
     FM271700 00000KT P6SM BKN025
     FM272000 04003KT P6SM BKN050
     FM280300 00000KT P6SM SCT050=

USA.gov is the U.S. government's official web portal to all federal, state and local government web resources and services.